sensor_id;sensor_type;location;lat;lon;timestamp;P1;durP1;ratioP1;P2;durP2;ratioP2
20997;SDS011;10657;51.276;6.390;2024-01-27T00:00:48;12.40;;;4.18;;
20997;SDS011;10657;51.276;6.390;2024-01-27T00:03:17;12.90;;;3.38;;
20997;SDS011;10657;51.276;6.390;2024-01-27T00:05:44;11.57;;;3.92;;
20997;SDS011;10657;51.276;6.390;2024-01-27T00:08:11;13.43;;;3.72;;
20997;SDS011;10657;51.276;6.390;2024-01-27T00:10:37;11.25;;;4.15;;
20997;SDS011;10657;51.276;6.390;2024-01-27T00:13:04;14.27;;;4.05;;
20997;SDS011;10657;51.276;6.390;2024-01-27T00:15:31;12.45;;;3.42;;
20997;SDS011;10657;51.276;6.390;2024-01-27T00:17:57;14.95;;;4.05;;
20997;SDS011;10657;51.276;6.390;2024-01-27T00:20:24;14.65;;;4.03;;
20997;SDS011;10657;51.276;6.390;2024-01-27T00:22:51;10.80;;;4.10;;
20997;SDS011;10657;51.276;6.390;2024-01-27T00:25:17;14.77;;;4.05;;
20997;SDS011;10657;51.276;6.390;2024-01-27T00:27:44;16.75;;;4.50;;
20997;SDS011;10657;51.276;6.390;2024-01-27T00:30:11;17.33;;;4.30;;
20997;SDS011;10657;51.276;6.390;2024-01-27T00:32:38;14.32;;;4.32;;
20997;SDS011;10657;51.276;6.390;2024-01-27T00:35:05;18.15;;;4.43;;
20997;SDS011;10657;51.276;6.390;2024-01-27T00:37:33;17.35;;;5.30;;
20997;SDS011;10657;51.276;6.390;2024-01-27T00:39:59;22.05;;;5.38;;
20997;SDS011;10657;51.276;6.390;2024-01-27T00:42:26;24.10;;;5.38;;
20997;SDS011;10657;51.276;6.390;2024-01-27T00:44:53;22.35;;;5.47;;
20997;SDS011;10657;51.276;6.390;2024-01-27T00:47:20;18.33;;;5.45;;
20997;SDS011;10657;51.276;6.390;2024-01-27T00:49:46;22.75;;;5.80;;
20997;SDS011;10657;51.276;6.390;2024-01-27T00:52:13;15.25;;;4.55;;
20997;SDS011;10657;51.276;6.390;2024-01-27T00:54:40;15.63;;;4.97;;
20997;SDS011;10657;51.276;6.390;2024-01-27T00:57:07;17.27;;;4.40;;
20997;SDS011;10657;51.276;6.390;2024-01-27T00:59:33;17.38;;;4.30;;
20997;SDS011;10657;51.276;6.390;2024-01-27T01:02:00;18.35;;;4.65;;
20997;SDS011;10657;51.276;6.390;2024-01-27T01:04:27;18.50;;;4.82;;
20997;SDS011;10657;51.276;6.390;2024-01-27T01:06:53;21.33;;;5.40;;
20997;SDS011;10657;51.276;6.390;2024-01-27T01:09:20;21.90;;;5.65;;
20997;SDS011;10657;51.276;6.390;2024-01-27T01:11:47;16.85;;;5.05;;
20997;SDS011;10657;51.276;6.390;2024-01-27T01:14:14;20.40;;;5.00;;
20997;SDS011;10657;51.276;6.390;2024-01-27T01:16:40;13.18;;;4.35;;
20997;SDS011;10657;51.276;6.390;2024-01-27T01:19:07;13.30;;;4.75;;
20997;SDS011;10657;51.276;6.390;2024-01-27T01:21:34;14.57;;;4.43;;
20997;SDS011;10657;51.276;6.390;2024-01-27T01:24:01;11.07;;;4.10;;
20997;SDS011;10657;51.276;6.390;2024-01-27T01:26:28;11.40;;;3.80;;
20997;SDS011;10657;51.276;6.390;2024-01-27T01:28:55;12.63;;;4.70;;
20997;SDS011;10657;51.276;6.390;2024-01-27T01:31:21;10.32;;;3.53;;
20997;SDS011;10657;51.276;6.390;2024-01-27T01:33:48;12.82;;;3.58;;
20997;SDS011;10657;51.276;6.390;2024-01-27T01:36:15;16.70;;;4.97;;
20997;SDS011;10657;51.276;6.390;2024-01-27T01:38:42;13.48;;;4.10;;
20997;SDS011;10657;51.276;6.390;2024-01-27T01:41:09;13.63;;;3.95;;
20997;SDS011;10657;51.276;6.390;2024-01-27T01:43:35;11.07;;;3.30;;
20997;SDS011;10657;51.276;6.390;2024-01-27T01:46:02;11.82;;;3.72;;
20997;SDS011;10657;51.276;6.390;2024-01-27T01:48:29;14.25;;;3.60;;
20997;SDS011;10657;51.276;6.390;2024-01-27T01:50:56;14.00;;;3.83;;
20997;SDS011;10657;51.276;6.390;2024-01-27T01:53:24;13.07;;;4.30;;
20997;SDS011;10657;51.276;6.390;2024-01-27T01:55:52;13.80;;;3.92;;
20997;SDS011;10657;51.276;6.390;2024-01-27T01:58:19;12.48;;;3.85;;
20997;SDS011;10657;51.276;6.390;2024-01-27T02:00:46;13.93;;;4.20;;
20997;SDS011;10657;51.276;6.390;2024-01-27T02:03:13;12.70;;;3.85;;
20997;SDS011;10657;51.276;6.390;2024-01-27T02:05:40;16.85;;;4.40;;
20997;SDS011;10657;51.276;6.390;2024-01-27T02:08:06;14.63;;;4.38;;
20997;SDS011;10657;51.276;6.390;2024-01-27T02:10:34;18.55;;;4.50;;
20997;SDS011;10657;51.276;6.390;2024-01-27T02:13:14;13.85;;;4.72;;
20997;SDS011;10657;51.276;6.390;2024-01-27T02:15:45;13.88;;;4.57;;
20997;SDS011;10657;51.276;6.390;2024-01-27T02:18:12;12.80;;;3.47;;
20997;SDS011;10657;51.276;6.390;2024-01-27T02:20:39;13.68;;;4.38;;
20997;SDS011;10657;51.276;6.390;2024-01-27T02:23:06;12.55;;;3.47;;
20997;SDS011;10657;51.276;6.390;2024-01-27T02:25:34;10.20;;;3.88;;
20997;SDS011;10657;51.276;6.390;2024-01-27T02:28:01;14.18;;;4.45;;
20997;SDS011;10657;51.276;6.390;2024-01-27T02:30:31;12.68;;;3.97;;
20997;SDS011;10657;51.276;6.390;2024-01-27T02:32:58;14.73;;;4.00;;
20997;SDS011;10657;51.276;6.390;2024-01-27T02:35:25;14.65;;;4.30;;
20997;SDS011;10657;51.276;6.390;2024-01-27T02:37:52;14.18;;;4.57;;
20997;SDS011;10657;51.276;6.390;2024-01-27T02:40:19;11.85;;;3.63;;
20997;SDS011;10657;51.276;6.390;2024-01-27T02:42:45;14.32;;;3.95;;
20997;SDS011;10657;51.276;6.390;2024-01-27T02:45:12;13.68;;;3.75;;
20997;SDS011;10657;51.276;6.390;2024-01-27T02:47:39;12.55;;;4.45;;
20997;SDS011;10657;51.276;6.390;2024-01-27T02:50:06;12.60;;;4.00;;
20997;SDS011;10657;51.276;6.390;2024-01-27T02:52:33;15.50;;;4.38;;
20997;SDS011;10657;51.276;6.390;2024-01-27T02:55:00;12.93;;;4.20;;
20997;SDS011;10657;51.276;6.390;2024-01-27T02:57:27;15.48;;;3.97;;
20997;SDS011;10657;51.276;6.390;2024-01-27T02:59:54;12.43;;;3.97;;
20997;SDS011;10657;51.276;6.390;2024-01-27T03:02:21;15.30;;;4.40;;
20997;SDS011;10657;51.276;6.390;2024-01-27T03:04:48;13.95;;;4.20;;
20997;SDS011;10657;51.276;6.390;2024-01-27T03:07:14;19.13;;;4.10;;
20997;SDS011;10657;51.276;6.390;2024-01-27T03:09:41;14.85;;;4.40;;
20997;SDS011;10657;51.276;6.390;2024-01-27T03:12:08;12.70;;;4.03;;
20997;SDS011;10657;51.276;6.390;2024-01-27T03:14:35;14.32;;;4.63;;
20997;SDS011;10657;51.276;6.390;2024-01-27T03:17:01;12.27;;;4.60;;
20997;SDS011;10657;51.276;6.390;2024-01-27T03:19:28;13.52;;;4.88;;
20997;SDS011;10657;51.276;6.390;2024-01-27T03:21:55;14.98;;;5.00;;
20997;SDS011;10657;51.276;6.390;2024-01-27T03:24:21;13.38;;;4.25;;
20997;SDS011;10657;51.276;6.390;2024-01-27T03:26:48;13.55;;;4.53;;
20997;SDS011;10657;51.276;6.390;2024-01-27T03:29:15;14.90;;;4.97;;
20997;SDS011;10657;51.276;6.390;2024-01-27T03:31:41;18.23;;;5.18;;
20997;SDS011;10657;51.276;6.390;2024-01-27T03:34:08;14.85;;;4.57;;
20997;SDS011;10657;51.276;6.390;2024-01-27T03:36:35;13.02;;;4.82;;
20997;SDS011;10657;51.276;6.390;2024-01-27T03:39:02;14.50;;;4.35;;
20997;SDS011;10657;51.276;6.390;2024-01-27T03:41:30;15.57;;;4.32;;
20997;SDS011;10657;51.276;6.390;2024-01-27T03:43:56;14.23;;;4.65;;
20997;SDS011;10657;51.276;6.390;2024-01-27T03:46:23;12.30;;;4.40;;
20997;SDS011;10657;51.276;6.390;2024-01-27T03:48:50;10.80;;;4.15;;
20997;SDS011;10657;51.276;6.390;2024-01-27T03:51:16;12.70;;;3.88;;
20997;SDS011;10657;51.276;6.390;2024-01-27T03:53:43;15.98;;;4.90;;
20997;SDS011;10657;51.276;6.390;2024-01-27T03:56:12;15.75;;;4.68;;
20997;SDS011;10657;51.276;6.390;2024-01-27T03:58:38;18.20;;;5.07;;
20997;SDS011;10657;51.276;6.390;2024-01-27T04:01:05;14.10;;;4.50;;
20997;SDS011;10657;51.276;6.390;2024-01-27T04:03:32;15.90;;;4.70;;
20997;SDS011;10657;51.276;6.390;2024-01-27T04:05:59;15.73;;;4.32;;
20997;SDS011;10657;51.276;6.390;2024-01-27T04:08:29;13.00;;;4.18;;
20997;SDS011;10657;51.276;6.390;2024-01-27T04:10:56;13.68;;;4.03;;
20997;SDS011;10657;51.276;6.390;2024-01-27T04:13:24;11.40;;;4.15;;
20997;SDS011;10657;51.276;6.390;2024-01-27T04:15:51;15.68;;;4.28;;
20997;SDS011;10657;51.276;6.390;2024-01-27T04:18:20;13.65;;;4.03;;
20997;SDS011;10657;51.276;6.390;2024-01-27T04:20:46;12.60;;;4.00;;
20997;SDS011;10657;51.276;6.390;2024-01-27T04:23:15;15.13;;;4.60;;
20997;SDS011;10657;51.276;6.390;2024-01-27T04:25:42;14.40;;;4.75;;
20997;SDS011;10657;51.276;6.390;2024-01-27T04:28:10;13.73;;;4.18;;
20997;SDS011;10657;51.276;6.390;2024-01-27T04:30:38;12.82;;;4.45;;
20997;SDS011;10657;51.276;6.390;2024-01-27T04:33:06;17.00;;;4.78;;
20997;SDS011;10657;51.276;6.390;2024-01-27T04:35:33;17.52;;;4.68;;
20997;SDS011;10657;51.276;6.390;2024-01-27T04:38:00;12.07;;;4.10;;
20997;SDS011;10657;51.276;6.390;2024-01-27T04:40:27;15.13;;;4.38;;
20997;SDS011;10657;51.276;6.390;2024-01-27T04:42:54;15.20;;;4.43;;
20997;SDS011;10657;51.276;6.390;2024-01-27T04:45:21;14.48;;;5.10;;
20997;SDS011;10657;51.276;6.390;2024-01-27T04:47:49;14.85;;;4.97;;
20997;SDS011;10657;51.276;6.390;2024-01-27T04:50:16;15.52;;;4.57;;
20997;SDS011;10657;51.276;6.390;2024-01-27T04:52:43;14.70;;;4.75;;
20997;SDS011;10657;51.276;6.390;2024-01-27T04:55:09;15.85;;;4.32;;
20997;SDS011;10657;51.276;6.390;2024-01-27T04:57:36;13.60;;;3.97;;
20997;SDS011;10657;51.276;6.390;2024-01-27T05:00:03;13.63;;;4.30;;
20997;SDS011;10657;51.276;6.390;2024-01-27T05:02:33;16.00;;;4.15;;
20997;SDS011;10657;51.276;6.390;2024-01-27T05:05:01;13.32;;;3.88;;
20997;SDS011;10657;51.276;6.390;2024-01-27T05:07:29;11.98;;;4.25;;
20997;SDS011;10657;51.276;6.390;2024-01-27T05:09:55;13.50;;;4.00;;
20997;SDS011;10657;51.276;6.390;2024-01-27T05:12:22;11.57;;;4.18;;
20997;SDS011;10657;51.276;6.390;2024-01-27T05:14:49;13.20;;;4.10;;
20997;SDS011;10657;51.276;6.390;2024-01-27T05:17:16;13.27;;;3.75;;
20997;SDS011;10657;51.276;6.390;2024-01-27T05:19:43;16.20;;;4.03;;
20997;SDS011;10657;51.276;6.390;2024-01-27T05:22:10;14.25;;;4.60;;
20997;SDS011;10657;51.276;6.390;2024-01-27T05:24:37;14.38;;;4.13;;
20997;SDS011;10657;51.276;6.390;2024-01-27T05:27:03;14.07;;;4.57;;
20997;SDS011;10657;51.276;6.390;2024-01-27T05:29:30;13.85;;;4.68;;
20997;SDS011;10657;51.276;6.390;2024-01-27T05:31:57;12.00;;;3.88;;
20997;SDS011;10657;51.276;6.390;2024-01-27T05:34:24;13.70;;;4.10;;
20997;SDS011;10657;51.276;6.390;2024-01-27T05:36:51;12.75;;;4.35;;
20997;SDS011;10657;51.276;6.390;2024-01-27T05:39:17;11.52;;;3.15;;
20997;SDS011;10657;51.276;6.390;2024-01-27T05:41:44;11.75;;;3.63;;
20997;SDS011;10657;51.276;6.390;2024-01-27T05:44:11;11.93;;;3.88;;
20997;SDS011;10657;51.276;6.390;2024-01-27T05:46:37;9.57;;;3.33;;
20997;SDS011;10657;51.276;6.390;2024-01-27T05:49:04;10.02;;;3.45;;
20997;SDS011;10657;51.276;6.390;2024-01-27T05:51:31;17.35;;;5.55;;
20997;SDS011;10657;51.276;6.390;2024-01-27T05:53:58;13.10;;;4.72;;
20997;SDS011;10657;51.276;6.390;2024-01-27T05:56:25;16.70;;;4.90;;
20997;SDS011;10657;51.276;6.390;2024-01-27T05:58:51;11.82;;;4.05;;
20997;SDS011;10657;51.276;6.390;2024-01-27T06:01:18;11.75;;;4.07;;
20997;SDS011;10657;51.276;6.390;2024-01-27T06:03:45;15.57;;;4.32;;
20997;SDS011;10657;51.276;6.390;2024-01-27T06:06:13;13.75;;;4.65;;
20997;SDS011;10657;51.276;6.390;2024-01-27T06:08:40;8.98;;;2.55;;
20997;SDS011;10657;51.276;6.390;2024-01-27T06:11:07;11.30;;;3.42;;
20997;SDS011;10657;51.276;6.390;2024-01-27T06:13:35;13.85;;;4.25;;
20997;SDS011;10657;51.276;6.390;2024-01-27T06:16:07;16.98;;;5.03;;
20997;SDS011;10657;51.276;6.390;2024-01-27T06:18:37;14.13;;;4.25;;
20997;SDS011;10657;51.276;6.390;2024-01-27T06:21:05;9.80;;;3.30;;
20997;SDS011;10657;51.276;6.390;2024-01-27T06:23:32;12.18;;;4.45;;
20997;SDS011;10657;51.276;6.390;2024-01-27T06:25:59;12.43;;;4.93;;
20997;SDS011;10657;51.276;6.390;2024-01-27T06:28:30;13.43;;;4.57;;
20997;SDS011;10657;51.276;6.390;2024-01-27T06:30:56;17.67;;;5.05;;
20997;SDS011;10657;51.276;6.390;2024-01-27T06:33:24;14.90;;;4.60;;
20997;SDS011;10657;51.276;6.390;2024-01-27T06:35:50;15.57;;;4.88;;
20997;SDS011;10657;51.276;6.390;2024-01-27T06:38:17;15.43;;;4.57;;
20997;SDS011;10657;51.276;6.390;2024-01-27T06:40:44;13.75;;;4.68;;
20997;SDS011;10657;51.276;6.390;2024-01-27T06:43:11;13.68;;;4.55;;
20997;SDS011;10657;51.276;6.390;2024-01-27T06:45:39;14.35;;;4.43;;
20997;SDS011;10657;51.276;6.390;2024-01-27T06:48:06;13.25;;;4.32;;
20997;SDS011;10657;51.276;6.390;2024-01-27T06:50:33;15.02;;;5.15;;
20997;SDS011;10657;51.276;6.390;2024-01-27T06:53:00;11.10;;;4.40;;
20997;SDS011;10657;51.276;6.390;2024-01-27T06:55:27;13.45;;;4.60;;
20997;SDS011;10657;51.276;6.390;2024-01-27T06:57:54;15.90;;;5.32;;
20997;SDS011;10657;51.276;6.390;2024-01-27T07:00:21;15.43;;;4.80;;
20997;SDS011;10657;51.276;6.390;2024-01-27T07:02:48;13.77;;;3.95;;
20997;SDS011;10657;51.276;6.390;2024-01-27T07:05:14;13.07;;;4.65;;
20997;SDS011;10657;51.276;6.390;2024-01-27T07:07:41;13.68;;;3.83;;
20997;SDS011;10657;51.276;6.390;2024-01-27T07:10:08;8.13;;;2.42;;
20997;SDS011;10657;51.276;6.390;2024-01-27T07:12:35;13.75;;;3.55;;
20997;SDS011;10657;51.276;6.390;2024-01-27T07:15:03;13.48;;;2.97;;
20997;SDS011;10657;51.276;6.390;2024-01-27T07:17:29;11.80;;;3.53;;
20997;SDS011;10657;51.276;6.390;2024-01-27T07:19:56;13.02;;;3.05;;
20997;SDS011;10657;51.276;6.390;2024-01-27T07:22:23;10.73;;;3.10;;
20997;SDS011;10657;51.276;6.390;2024-01-27T07:24:50;5.50;;;1.83;;
20997;SDS011;10657;51.276;6.390;2024-01-27T07:27:18;10.30;;;2.25;;
20997;SDS011;10657;51.276;6.390;2024-01-27T07:29:45;9.30;;;3.05;;
20997;SDS011;10657;51.276;6.390;2024-01-27T07:32:12;11.25;;;3.15;;
20997;SDS011;10657;51.276;6.390;2024-01-27T07:34:42;11.15;;;2.95;;
20997;SDS011;10657;51.276;6.390;2024-01-27T07:37:09;13.95;;;3.03;;
20997;SDS011;10657;51.276;6.390;2024-01-27T07:39:36;11.85;;;4.00;;
20997;SDS011;10657;51.276;6.390;2024-01-27T07:42:03;12.63;;;3.03;;
20997;SDS011;10657;51.276;6.390;2024-01-27T07:44:30;13.73;;;3.85;;
20997;SDS011;10657;51.276;6.390;2024-01-27T07:46:57;9.43;;;2.75;;
20997;SDS011;10657;51.276;6.390;2024-01-27T07:49:24;8.80;;;2.80;;
20997;SDS011;10657;51.276;6.390;2024-01-27T07:51:51;8.90;;;2.67;;
20997;SDS011;10657;51.276;6.390;2024-01-27T07:54:17;12.02;;;3.25;;
20997;SDS011;10657;51.276;6.390;2024-01-27T07:56:44;17.52;;;4.97;;
20997;SDS011;10657;51.276;6.390;2024-01-27T07:59:11;10.32;;;2.83;;
20997;SDS011;10657;51.276;6.390;2024-01-27T08:01:40;11.77;;;3.58;;
20997;SDS011;10657;51.276;6.390;2024-01-27T08:04:07;9.82;;;2.60;;
20997;SDS011;10657;51.276;6.390;2024-01-27T08:06:45;10.68;;;2.72;;
20997;SDS011;10657;51.276;6.390;2024-01-27T08:09:16;10.15;;;2.58;;
20997;SDS011;10657;51.276;6.390;2024-01-27T08:11:44;11.30;;;3.35;;
20997;SDS011;10657;51.276;6.390;2024-01-27T08:14:11;12.85;;;4.57;;
20997;SDS011;10657;51.276;6.390;2024-01-27T08:16:38;15.40;;;4.63;;
20997;SDS011;10657;51.276;6.390;2024-01-27T08:19:04;16.55;;;5.25;;
20997;SDS011;10657;51.276;6.390;2024-01-27T08:21:31;13.10;;;4.50;;
20997;SDS011;10657;51.276;6.390;2024-01-27T08:23:58;11.63;;;4.07;;
20997;SDS011;10657;51.276;6.390;2024-01-27T08:26:25;9.57;;;2.55;;
20997;SDS011;10657;51.276;6.390;2024-01-27T08:28:52;11.77;;;2.85;;
20997;SDS011;10657;51.276;6.390;2024-01-27T08:31:20;6.43;;;2.03;;
20997;SDS011;10657;51.276;6.390;2024-01-27T08:33:47;14.82;;;5.38;;
20997;SDS011;10657;51.276;6.390;2024-01-27T08:36:14;20.98;;;6.07;;
20997;SDS011;10657;51.276;6.390;2024-01-27T08:38:41;10.07;;;2.75;;
20997;SDS011;10657;51.276;6.390;2024-01-27T08:41:08;11.80;;;4.18;;
20997;SDS011;10657;51.276;6.390;2024-01-27T08:43:34;12.95;;;3.78;;
20997;SDS011;10657;51.276;6.390;2024-01-27T08:46:01;9.43;;;2.72;;
20997;SDS011;10657;51.276;6.390;2024-01-27T08:48:28;12.98;;;2.92;;
20997;SDS011;10657;51.276;6.390;2024-01-27T08:50:55;8.10;;;2.30;;
20997;SDS011;10657;51.276;6.390;2024-01-27T08:53:22;5.82;;;1.75;;
20997;SDS011;10657;51.276;6.390;2024-01-27T08:55:49;13.38;;;5.03;;
20997;SDS011;10657;51.276;6.390;2024-01-27T08:58:15;10.35;;;3.08;;
20997;SDS011;10657;51.276;6.390;2024-01-27T09:00:42;11.45;;;3.33;;
20997;SDS011;10657;51.276;6.390;2024-01-27T09:03:09;13.65;;;4.45;;
20997;SDS011;10657;51.276;6.390;2024-01-27T09:05:35;13.25;;;3.75;;
20997;SDS011;10657;51.276;6.390;2024-01-27T09:08:02;16.65;;;4.80;;
20997;SDS011;10657;51.276;6.390;2024-01-27T09:10:29;16.63;;;4.28;;
20997;SDS011;10657;51.276;6.390;2024-01-27T09:12:56;12.02;;;3.42;;
20997;SDS011;10657;51.276;6.390;2024-01-27T09:15:22;6.50;;;1.95;;
20997;SDS011;10657;51.276;6.390;2024-01-27T09:17:49;12.13;;;2.70;;
20997;SDS011;10657;51.276;6.390;2024-01-27T09:20:16;15.40;;;4.72;;
20997;SDS011;10657;51.276;6.390;2024-01-27T09:22:43;10.73;;;2.70;;
20997;SDS011;10657;51.276;6.390;2024-01-27T09:25:11;13.07;;;4.38;;
20997;SDS011;10657;51.276;6.390;2024-01-27T09:27:37;13.88;;;4.20;;
20997;SDS011;10657;51.276;6.390;2024-01-27T09:30:04;14.02;;;4.82;;
20997;SDS011;10657;51.276;6.390;2024-01-27T09:32:33;11.60;;;3.95;;
20997;SDS011;10657;51.276;6.390;2024-01-27T09:35:00;18.88;;;5.07;;
20997;SDS011;10657;51.276;6.390;2024-01-27T09:37:26;8.63;;;2.88;;
20997;SDS011;10657;51.276;6.390;2024-01-27T09:39:54;13.90;;;4.07;;
20997;SDS011;10657;51.276;6.390;2024-01-27T09:42:21;7.97;;;2.22;;
20997;SDS011;10657;51.276;6.390;2024-01-27T09:44:49;11.77;;;3.40;;
20997;SDS011;10657;51.276;6.390;2024-01-27T09:47:16;10.75;;;3.20;;
20997;SDS011;10657;51.276;6.390;2024-01-27T09:49:43;12.13;;;2.92;;
20997;SDS011;10657;51.276;6.390;2024-01-27T09:52:10;16.20;;;5.03;;
20997;SDS011;10657;51.276;6.390;2024-01-27T09:54:37;17.38;;;4.85;;
20997;SDS011;10657;51.276;6.390;2024-01-27T09:57:06;15.68;;;3.38;;
20997;SDS011;10657;51.276;6.390;2024-01-27T09:59:35;14.07;;;5.63;;
20997;SDS011;10657;51.276;6.390;2024-01-27T10:02:03;11.52;;;4.43;;
20997;SDS011;10657;51.276;6.390;2024-01-27T10:04:32;15.35;;;4.80;;
20997;SDS011;10657;51.276;6.390;2024-01-27T10:06:59;15.23;;;5.10;;
20997;SDS011;10657;51.276;6.390;2024-01-27T10:09:25;16.65;;;4.72;;
20997;SDS011;10657;51.276;6.390;2024-01-27T10:11:52;16.10;;;4.75;;
20997;SDS011;10657;51.276;6.390;2024-01-27T10:14:21;15.35;;;4.55;;
20997;SDS011;10657;51.276;6.390;2024-01-27T10:16:48;17.88;;;4.95;;
20997;SDS011;10657;51.276;6.390;2024-01-27T10:19:18;15.32;;;5.50;;
20997;SDS011;10657;51.276;6.390;2024-01-27T10:21:47;10.00;;;3.50;;
20997;SDS011;10657;51.276;6.390;2024-01-27T10:24:14;14.77;;;4.18;;
20997;SDS011;10657;51.276;6.390;2024-01-27T10:26:41;15.70;;;6.00;;
20997;SDS011;10657;51.276;6.390;2024-01-27T10:29:08;18.25;;;5.50;;
20997;SDS011;10657;51.276;6.390;2024-01-27T10:31:36;12.10;;;3.83;;
20997;SDS011;10657;51.276;6.390;2024-01-27T10:34:03;15.20;;;4.97;;
20997;SDS011;10657;51.276;6.390;2024-01-27T10:36:41;16.05;;;4.53;;
20997;SDS011;10657;51.276;6.390;2024-01-27T10:39:18;14.75;;;4.32;;
20997;SDS011;10657;51.276;6.390;2024-01-27T10:41:49;13.88;;;4.22;;
20997;SDS011;10657;51.276;6.390;2024-01-27T10:44:17;16.23;;;5.00;;
20997;SDS011;10657;51.276;6.390;2024-01-27T10:46:48;16.92;;;5.10;;
20997;SDS011;10657;51.276;6.390;2024-01-27T10:49:16;21.10;;;5.20;;
20997;SDS011;10657;51.276;6.390;2024-01-27T10:51:54;14.95;;;4.65;;
20997;SDS011;10657;51.276;6.390;2024-01-27T10:54:25;15.90;;;6.68;;
20997;SDS011;10657;51.276;6.390;2024-01-27T10:56:57;19.95;;;4.63;;
20997;SDS011;10657;51.276;6.390;2024-01-27T10:59:28;15.00;;;4.68;;
20997;SDS011;10657;51.276;6.390;2024-01-27T11:01:58;15.43;;;4.30;;
20997;SDS011;10657;51.276;6.390;2024-01-27T11:04:24;13.00;;;3.75;;
20997;SDS011;10657;51.276;6.390;2024-01-27T11:06:52;14.50;;;3.67;;
20997;SDS011;10657;51.276;6.390;2024-01-27T11:09:21;16.70;;;4.30;;
20997;SDS011;10657;51.276;6.390;2024-01-27T11:11:48;16.27;;;4.97;;
20997;SDS011;10657;51.276;6.390;2024-01-27T11:14:15;15.23;;;4.35;;
20997;SDS011;10657;51.276;6.390;2024-01-27T11:16:42;16.27;;;4.13;;
20997;SDS011;10657;51.276;6.390;2024-01-27T11:19:11;12.55;;;3.75;;
20997;SDS011;10657;51.276;6.390;2024-01-27T11:21:38;13.18;;;4.40;;
20997;SDS011;10657;51.276;6.390;2024-01-27T11:24:12;16.92;;;4.15;;
20997;SDS011;10657;51.276;6.390;2024-01-27T11:26:39;13.40;;;3.63;;
20997;SDS011;10657;51.276;6.390;2024-01-27T11:29:06;11.60;;;3.63;;
20997;SDS011;10657;51.276;6.390;2024-01-27T11:31:35;12.05;;;3.47;;
20997;SDS011;10657;51.276;6.390;2024-01-27T11:34:09;15.40;;;4.53;;
20997;SDS011;10657;51.276;6.390;2024-01-27T11:36:39;16.10;;;4.60;;
20997;SDS011;10657;51.276;6.390;2024-01-27T11:39:22;13.15;;;3.30;;
20997;SDS011;10657;51.276;6.390;2024-01-27T11:42:03;15.25;;;3.88;;
20997;SDS011;10657;51.276;6.390;2024-01-27T11:44:34;12.70;;;4.00;;
20997;SDS011;10657;51.276;6.390;2024-01-27T11:47:02;15.57;;;3.67;;
20997;SDS011;10657;51.276;6.390;2024-01-27T11:49:29;12.07;;;3.88;;
20997;SDS011;10657;51.276;6.390;2024-01-27T11:51:56;15.63;;;3.88;;
20997;SDS011;10657;51.276;6.390;2024-01-27T11:54:23;12.60;;;3.30;;
20997;SDS011;10657;51.276;6.390;2024-01-27T11:56:50;13.50;;;3.30;;
20997;SDS011;10657;51.276;6.390;2024-01-27T11:59:17;11.00;;;3.00;;
20997;SDS011;10657;51.276;6.390;2024-01-27T12:01:44;10.57;;;3.30;;
20997;SDS011;10657;51.276;6.390;2024-01-27T12:04:11;12.18;;;2.92;;
20997;SDS011;10657;51.276;6.390;2024-01-27T12:06:40;10.65;;;3.42;;
20997;SDS011;10657;51.276;6.390;2024-01-27T12:09:08;10.18;;;2.90;;
20997;SDS011;10657;51.276;6.390;2024-01-27T12:11:38;13.98;;;3.60;;
20997;SDS011;10657;51.276;6.390;2024-01-27T12:14:07;13.82;;;4.40;;
20997;SDS011;10657;51.276;6.390;2024-01-27T12:16:34;14.82;;;5.70;;
20997;SDS011;10657;51.276;6.390;2024-01-27T12:19:01;15.38;;;3.50;;
20997;SDS011;10657;51.276;6.390;2024-01-27T12:21:28;10.32;;;2.80;;
20997;SDS011;10657;51.276;6.390;2024-01-27T12:23:56;10.80;;;3.28;;
20997;SDS011;10657;51.276;6.390;2024-01-27T12:26:27;11.82;;;3.55;;
20997;SDS011;10657;51.276;6.390;2024-01-27T12:28:55;12.75;;;2.70;;
20997;SDS011;10657;51.276;6.390;2024-01-27T12:31:24;12.32;;;2.97;;
20997;SDS011;10657;51.276;6.390;2024-01-27T12:33:55;9.63;;;3.30;;
20997;SDS011;10657;51.276;6.390;2024-01-27T12:36:23;16.23;;;4.20;;
20997;SDS011;10657;51.276;6.390;2024-01-27T12:38:54;13.90;;;4.47;;
20997;SDS011;10657;51.276;6.390;2024-01-27T12:41:25;14.43;;;3.75;;
20997;SDS011;10657;51.276;6.390;2024-01-27T12:43:53;12.75;;;3.53;;
20997;SDS011;10657;51.276;6.390;2024-01-27T12:46:20;11.57;;;2.75;;
20997;SDS011;10657;51.276;6.390;2024-01-27T12:48:47;11.13;;;3.17;;
20997;SDS011;10657;51.276;6.390;2024-01-27T12:51:13;12.65;;;3.35;;
20997;SDS011;10657;51.276;6.390;2024-01-27T12:53:41;12.75;;;2.88;;
20997;SDS011;10657;51.276;6.390;2024-01-27T12:56:10;8.35;;;2.40;;
20997;SDS011;10657;51.276;6.390;2024-01-27T12:58:38;11.25;;;2.70;;
20997;SDS011;10657;51.276;6.390;2024-01-27T13:01:06;11.85;;;3.03;;
20997;SDS011;10657;51.276;6.390;2024-01-27T13:03:33;11.13;;;2.70;;
20997;SDS011;10657;51.276;6.390;2024-01-27T13:06:00;10.68;;;2.90;;
20997;SDS011;10657;51.276;6.390;2024-01-27T13:08:28;9.43;;;2.50;;
20997;SDS011;10657;51.276;6.390;2024-01-27T13:10:55;12.05;;;2.67;;
20997;SDS011;10657;51.276;6.390;2024-01-27T13:13:21;10.43;;;3.30;;
20997;SDS011;10657;51.276;6.390;2024-01-27T13:15:48;8.13;;;1.98;;
20997;SDS011;10657;51.276;6.390;2024-01-27T13:18:15;11.43;;;2.90;;
20997;SDS011;10657;51.276;6.390;2024-01-27T13:20:41;13.02;;;3.38;;
20997;SDS011;10657;51.276;6.390;2024-01-27T13:23:08;13.98;;;3.10;;
20997;SDS011;10657;51.276;6.390;2024-01-27T13:25:35;13.18;;;3.30;;
20997;SDS011;10657;51.276;6.390;2024-01-27T13:28:02;9.20;;;2.75;;
20997;SDS011;10657;51.276;6.390;2024-01-27T13:30:29;11.95;;;2.67;;
20997;SDS011;10657;51.276;6.390;2024-01-27T13:32:56;7.88;;;2.35;;
20997;SDS011;10657;51.276;6.390;2024-01-27T13:35:23;12.88;;;2.53;;
20997;SDS011;10657;51.276;6.390;2024-01-27T13:37:50;8.65;;;2.25;;
20997;SDS011;10657;51.276;6.390;2024-01-27T13:40:16;5.13;;;1.40;;
20997;SDS011;10657;51.276;6.390;2024-01-27T13:42:44;8.80;;;2.50;;
20997;SDS011;10657;51.276;6.390;2024-01-27T13:45:10;7.88;;;2.03;;
20997;SDS011;10657;51.276;6.390;2024-01-27T13:47:37;7.70;;;1.83;;
20997;SDS011;10657;51.276;6.390;2024-01-27T13:50:05;12.25;;;2.47;;
20997;SDS011;10657;51.276;6.390;2024-01-27T13:52:33;11.02;;;2.65;;
20997;SDS011;10657;51.276;6.390;2024-01-27T13:55:00;10.07;;;2.45;;
20997;SDS011;10657;51.276;6.390;2024-01-27T13:57:26;12.35;;;3.35;;
20997;SDS011;10657;51.276;6.390;2024-01-27T13:59:53;15.25;;;2.67;;
20997;SDS011;10657;51.276;6.390;2024-01-27T14:02:20;4.93;;;1.60;;
20997;SDS011;10657;51.276;6.390;2024-01-27T14:04:47;10.05;;;2.35;;
20997;SDS011;10657;51.276;6.390;2024-01-27T14:07:14;8.60;;;2.10;;
20997;SDS011;10657;51.276;6.390;2024-01-27T14:09:42;7.07;;;1.80;;
20997;SDS011;10657;51.276;6.390;2024-01-27T14:12:10;8.98;;;1.60;;
20997;SDS011;10657;51.276;6.390;2024-01-27T14:14:37;12.88;;;2.40;;
20997;SDS011;10657;51.276;6.390;2024-01-27T14:17:06;11.57;;;2.67;;
20997;SDS011;10657;51.276;6.390;2024-01-27T14:19:33;9.02;;;2.03;;
20997;SDS011;10657;51.276;6.390;2024-01-27T14:22:00;7.93;;;2.00;;
20997;SDS011;10657;51.276;6.390;2024-01-27T14:24:27;10.40;;;2.20;;
20997;SDS011;10657;51.276;6.390;2024-01-27T14:26:53;11.48;;;2.17;;
20997;SDS011;10657;51.276;6.390;2024-01-27T14:29:20;5.55;;;1.38;;
20997;SDS011;10657;51.276;6.390;2024-01-27T14:31:47;6.88;;;1.63;;
20997;SDS011;10657;51.276;6.390;2024-01-27T14:34:13;9.43;;;2.33;;
20997;SDS011;10657;51.276;6.390;2024-01-27T14:36:40;5.35;;;1.60;;